sensor_id;sensor_type;location;lat;lon;timestamp;P1;durP1;ratioP1;P2;durP2;ratioP2
25083;SDS011;13075;55.682;37.564;2022-08-19T00:02:22;10.10;;;5.15;;
25083;SDS011;13075;55.682;37.564;2022-08-19T00:04:48;4.45;;;4.05;;
25083;SDS011;13075;55.682;37.564;2022-08-19T00:07:17;6.85;;;4.95;;
25083;SDS011;13075;55.682;37.564;2022-08-19T00:09:44;7.13;;;4.30;;
25083;SDS011;13075;55.682;37.564;2022-08-19T00:12:09;12.20;;;5.75;;
25083;SDS011;13075;55.682;37.564;2022-08-19T00:14:36;11.27;;;6.28;;
25083;SDS011;13075;55.682;37.564;2022-08-19T00:17:03;6.07;;;4.25;;
25083;SDS011;13075;55.682;37.564;2022-08-19T00:19:31;11.00;;;5.45;;
25083;SDS011;13075;55.682;37.564;2022-08-19T00:21:58;9.73;;;5.80;;
25083;SDS011;13075;55.682;37.564;2022-08-19T00:24:24;13.55;;;7.75;;
25083;SDS011;13075;55.682;37.564;2022-08-19T00:26:50;11.38;;;4.80;;
25083;SDS011;13075;55.682;37.564;2022-08-19T00:29:17;11.73;;;5.57;;
25083;SDS011;13075;55.682;37.564;2022-08-19T00:31:45;12.13;;;6.00;;
25083;SDS011;13075;55.682;37.564;2022-08-19T00:34:12;8.65;;;5.20;;
25083;SDS011;13075;55.682;37.564;2022-08-19T00:36:39;9.38;;;5.07;;
25083;SDS011;13075;55.682;37.564;2022-08-19T00:39:06;11.15;;;5.07;;
25083;SDS011;13075;55.682;37.564;2022-08-19T00:41:32;9.32;;;5.05;;
25083;SDS011;13075;55.682;37.564;2022-08-19T00:46:32;11.98;;;5.05;;
25083;SDS011;13075;55.682;37.564;2022-08-19T00:49:02;15.48;;;6.15;;
25083;SDS011;13075;55.682;37.564;2022-08-19T00:51:33;14.35;;;5.78;;
25083;SDS011;13075;55.682;37.564;2022-08-19T00:53:59;9.05;;;5.50;;
25083;SDS011;13075;55.682;37.564;2022-08-19T00:56:26;13.30;;;5.75;;
25083;SDS011;13075;55.682;37.564;2022-08-19T00:58:54;6.80;;;5.20;;
25083;SDS011;13075;55.682;37.564;2022-08-19T01:01:21;13.35;;;5.28;;
25083;SDS011;13075;55.682;37.564;2022-08-19T01:03:47;13.57;;;5.03;;
25083;SDS011;13075;55.682;37.564;2022-08-19T01:06:12;14.00;;;5.10;;
25083;SDS011;13075;55.682;37.564;2022-08-19T01:08:39;8.90;;;5.85;;
25083;SDS011;13075;55.682;37.564;2022-08-19T01:11:05;9.85;;;4.60;;
25083;SDS011;13075;55.682;37.564;2022-08-19T01:13:35;10.77;;;4.63;;
25083;SDS011;13075;55.682;37.564;2022-08-19T01:16:05;15.38;;;5.57;;
25083;SDS011;13075;55.682;37.564;2022-08-19T01:18:35;11.38;;;5.28;;
25083;SDS011;13075;55.682;37.564;2022-08-19T01:21:09;16.15;;;5.55;;
25083;SDS011;13075;55.682;37.564;2022-08-19T01:23:46;10.95;;;5.25;;
25083;SDS011;13075;55.682;37.564;2022-08-19T01:26:14;16.67;;;7.05;;
25083;SDS011;13075;55.682;37.564;2022-08-19T01:28:43;15.63;;;5.82;;
25083;SDS011;13075;55.682;37.564;2022-08-19T01:31:13;11.40;;;6.07;;
25083;SDS011;13075;55.682;37.564;2022-08-19T01:33:41;11.88;;;4.72;;
25083;SDS011;13075;55.682;37.564;2022-08-19T01:36:11;14.48;;;5.63;;
25083;SDS011;13075;55.682;37.564;2022-08-19T01:38:40;12.27;;;5.63;;
25083;SDS011;13075;55.682;37.564;2022-08-19T01:41:08;13.13;;;5.35;;
25083;SDS011;13075;55.682;37.564;2022-08-19T01:43:36;12.40;;;5.05;;
25083;SDS011;13075;55.682;37.564;2022-08-19T01:46:02;10.85;;;5.28;;
25083;SDS011;13075;55.682;37.564;2022-08-19T01:48:32;10.05;;;4.88;;
25083;SDS011;13075;55.682;37.564;2022-08-19T01:51:02;9.30;;;5.03;;
25083;SDS011;13075;55.682;37.564;2022-08-19T01:53:28;15.48;;;5.22;;
25083;SDS011;13075;55.682;37.564;2022-08-19T01:55:55;12.27;;;4.63;;
25083;SDS011;13075;55.682;37.564;2022-08-19T01:58:22;9.90;;;5.05;;
25083;SDS011;13075;55.682;37.564;2022-08-19T02:00:51;11.50;;;5.22;;
25083;SDS011;13075;55.682;37.564;2022-08-19T02:03:17;12.77;;;4.90;;
25083;SDS011;13075;55.682;37.564;2022-08-19T02:05:43;9.23;;;5.45;;
25083;SDS011;13075;55.682;37.564;2022-08-19T02:08:09;13.98;;;4.75;;
25083;SDS011;13075;55.682;37.564;2022-08-19T02:10:38;7.32;;;5.07;;
25083;SDS011;13075;55.682;37.564;2022-08-19T02:13:06;8.13;;;5.70;;
25083;SDS011;13075;55.682;37.564;2022-08-19T02:15:32;9.68;;;5.38;;
25083;SDS011;13075;55.682;37.564;2022-08-19T02:17:57;13.40;;;5.25;;
25083;SDS011;13075;55.682;37.564;2022-08-19T02:20:23;12.75;;;4.78;;
25083;SDS011;13075;55.682;37.564;2022-08-19T02:22:49;17.48;;;6.95;;
25083;SDS011;13075;55.682;37.564;2022-08-19T02:25:15;18.15;;;8.38;;
25083;SDS011;13075;55.682;37.564;2022-08-19T02:27:41;11.05;;;6.00;;
25083;SDS011;13075;55.682;37.564;2022-08-19T02:30:10;12.48;;;7.75;;
25083;SDS011;13075;55.682;37.564;2022-08-19T02:32:38;11.73;;;5.60;;
25083;SDS011;13075;55.682;37.564;2022-08-19T02:35:04;17.63;;;6.15;;
25083;SDS011;13075;55.682;37.564;2022-08-19T02:37:30;15.52;;;5.28;;
25083;SDS011;13075;55.682;37.564;2022-08-19T02:42:40;11.38;;;6.10;;
25083;SDS011;13075;55.682;37.564;2022-08-19T02:45:06;9.57;;;5.57;;
25083;SDS011;13075;55.682;37.564;2022-08-19T02:47:32;14.75;;;6.00;;
25083;SDS011;13075;55.682;37.564;2022-08-19T02:49:58;10.52;;;6.22;;
25083;SDS011;13075;55.682;37.564;2022-08-19T02:52:25;12.68;;;5.43;;
25083;SDS011;13075;55.682;37.564;2022-08-19T02:54:51;14.88;;;6.15;;
25083;SDS011;13075;55.682;37.564;2022-08-19T02:57:17;15.63;;;5.13;;
25083;SDS011;13075;55.682;37.564;2022-08-19T02:59:43;8.77;;;5.28;;
25083;SDS011;13075;55.682;37.564;2022-08-19T03:02:08;15.20;;;5.35;;
25083;SDS011;13075;55.682;37.564;2022-08-19T03:04:34;15.75;;;6.00;;
25083;SDS011;13075;55.682;37.564;2022-08-19T03:06:59;9.02;;;5.28;;
25083;SDS011;13075;55.682;37.564;2022-08-19T03:09:25;14.68;;;6.65;;
25083;SDS011;13075;55.682;37.564;2022-08-19T03:11:50;14.98;;;7.63;;
25083;SDS011;13075;55.682;37.564;2022-08-19T03:14:16;21.45;;;6.63;;
25083;SDS011;13075;55.682;37.564;2022-08-19T03:16:51;18.25;;;6.95;;
25083;SDS011;13075;55.682;37.564;2022-08-19T03:19:18;18.17;;;6.95;;
25083;SDS011;13075;55.682;37.564;2022-08-19T03:21:46;10.68;;;5.90;;
25083;SDS011;13075;55.682;37.564;2022-08-19T03:24:13;12.20;;;5.78;;
25083;SDS011;13075;55.682;37.564;2022-08-19T03:26:40;16.23;;;6.65;;
25083;SDS011;13075;55.682;37.564;2022-08-19T03:29:07;13.57;;;6.07;;
25083;SDS011;13075;55.682;37.564;2022-08-19T03:31:35;15.70;;;5.80;;
25083;SDS011;13075;55.682;37.564;2022-08-19T03:34:02;15.88;;;7.57;;
25083;SDS011;13075;55.682;37.564;2022-08-19T03:36:27;15.05;;;6.03;;
25083;SDS011;13075;55.682;37.564;2022-08-19T03:38:54;17.83;;;6.68;;
25083;SDS011;13075;55.682;37.564;2022-08-19T03:41:32;15.20;;;7.60;;
25083;SDS011;13075;55.682;37.564;2022-08-19T03:44:02;14.55;;;6.10;;
25083;SDS011;13075;55.682;37.564;2022-08-19T03:46:30;15.48;;;6.18;;
25083;SDS011;13075;55.682;37.564;2022-08-19T03:48:59;17.77;;;7.00;;
25083;SDS011;13075;55.682;37.564;2022-08-19T03:53:53;14.10;;;7.20;;
25083;SDS011;13075;55.682;37.564;2022-08-19T03:56:20;17.15;;;6.35;;
25083;SDS011;13075;55.682;37.564;2022-08-19T03:58:47;12.05;;;6.60;;
25083;SDS011;13075;55.682;37.564;2022-08-19T04:01:14;15.85;;;6.15;;
25083;SDS011;13075;55.682;37.564;2022-08-19T04:03:43;17.08;;;6.40;;
25083;SDS011;13075;55.682;37.564;2022-08-19T04:08:41;13.57;;;7.45;;
25083;SDS011;13075;55.682;37.564;2022-08-19T04:11:09;15.50;;;6.35;;
25083;SDS011;13075;55.682;37.564;2022-08-19T04:13:36;13.93;;;6.30;;
25083;SDS011;13075;55.682;37.564;2022-08-19T04:16:02;18.15;;;6.35;;
25083;SDS011;13075;55.682;37.564;2022-08-19T04:18:29;24.30;;;7.72;;
25083;SDS011;13075;55.682;37.564;2022-08-19T04:20:55;11.77;;;7.00;;
25083;SDS011;13075;55.682;37.564;2022-08-19T04:23:21;24.02;;;5.85;;
25083;SDS011;13075;55.682;37.564;2022-08-19T04:25:47;18.02;;;7.45;;
25083;SDS011;13075;55.682;37.564;2022-08-19T04:28:13;10.82;;;6.35;;
25083;SDS011;13075;55.682;37.564;2022-08-19T04:30:40;15.00;;;7.35;;
25083;SDS011;13075;55.682;37.564;2022-08-19T04:33:11;16.23;;;7.97;;
25083;SDS011;13075;55.682;37.564;2022-08-19T04:35:42;13.38;;;6.03;;
25083;SDS011;13075;55.682;37.564;2022-08-19T04:38:10;12.25;;;6.22;;
25083;SDS011;13075;55.682;37.564;2022-08-19T04:40:40;15.88;;;6.28;;
25083;SDS011;13075;55.682;37.564;2022-08-19T04:43:28;14.60;;;6.35;;
25083;SDS011;13075;55.682;37.564;2022-08-19T04:45:55;15.88;;;6.78;;
25083;SDS011;13075;55.682;37.564;2022-08-19T04:48:21;14.48;;;7.18;;
25083;SDS011;13075;55.682;37.564;2022-08-19T04:50:57;14.45;;;6.18;;
25083;SDS011;13075;55.682;37.564;2022-08-19T04:53:28;27.48;;;10.82;;
25083;SDS011;13075;55.682;37.564;2022-08-19T04:58:25;17.25;;;6.38;;
25083;SDS011;13075;55.682;37.564;2022-08-19T05:00:51;18.13;;;7.72;;
25083;SDS011;13075;55.682;37.564;2022-08-19T05:03:17;14.25;;;6.32;;
25083;SDS011;13075;55.682;37.564;2022-08-19T05:05:44;22.98;;;9.30;;
25083;SDS011;13075;55.682;37.564;2022-08-19T05:08:14;12.10;;;7.00;;
25083;SDS011;13075;55.682;37.564;2022-08-19T05:10:46;19.23;;;7.47;;
25083;SDS011;13075;55.682;37.564;2022-08-19T05:13:12;18.83;;;7.70;;
25083;SDS011;13075;55.682;37.564;2022-08-19T05:15:38;10.82;;;7.03;;
25083;SDS011;13075;55.682;37.564;2022-08-19T05:18:03;13.43;;;7.30;;
25083;SDS011;13075;55.682;37.564;2022-08-19T05:20:48;21.08;;;8.77;;
25083;SDS011;13075;55.682;37.564;2022-08-19T05:23:32;24.55;;;7.43;;
25083;SDS011;13075;55.682;37.564;2022-08-19T05:25:58;17.38;;;6.75;;
25083;SDS011;13075;55.682;37.564;2022-08-19T05:28:24;17.40;;;6.95;;
25083;SDS011;13075;55.682;37.564;2022-08-19T05:30:49;13.50;;;7.25;;
25083;SDS011;13075;55.682;37.564;2022-08-19T05:33:16;18.40;;;6.80;;
25083;SDS011;13075;55.682;37.564;2022-08-19T05:35:43;14.73;;;7.15;;
25083;SDS011;13075;55.682;37.564;2022-08-19T05:38:09;15.65;;;7.15;;
25083;SDS011;13075;55.682;37.564;2022-08-19T05:40:36;17.30;;;8.88;;
25083;SDS011;13075;55.682;37.564;2022-08-19T05:43:07;15.60;;;7.00;;
25083;SDS011;13075;55.682;37.564;2022-08-19T05:45:37;13.77;;;7.53;;
25083;SDS011;13075;55.682;37.564;2022-08-19T05:48:04;17.00;;;6.80;;
25083;SDS011;13075;55.682;37.564;2022-08-19T05:50:30;14.10;;;6.88;;
25083;SDS011;13075;55.682;37.564;2022-08-19T05:52:55;17.85;;;7.40;;
25083;SDS011;13075;55.682;37.564;2022-08-19T05:55:21;24.73;;;7.28;;
25083;SDS011;13075;55.682;37.564;2022-08-19T05:57:47;22.48;;;8.23;;
25083;SDS011;13075;55.682;37.564;2022-08-19T06:00:13;23.20;;;7.65;;
25083;SDS011;13075;55.682;37.564;2022-08-19T06:02:39;18.48;;;6.80;;
25083;SDS011;13075;55.682;37.564;2022-08-19T06:05:06;16.15;;;7.13;;
25083;SDS011;13075;55.682;37.564;2022-08-19T06:07:35;11.43;;;6.72;;
25083;SDS011;13075;55.682;37.564;2022-08-19T06:10:02;16.67;;;7.47;;
25083;SDS011;13075;55.682;37.564;2022-08-19T06:12:31;19.63;;;6.68;;
25083;SDS011;13075;55.682;37.564;2022-08-19T06:15:03;19.98;;;7.95;;
25083;SDS011;13075;55.682;37.564;2022-08-19T06:17:34;13.75;;;7.07;;
25083;SDS011;13075;55.682;37.564;2022-08-19T06:20:00;24.02;;;7.95;;
25083;SDS011;13075;55.682;37.564;2022-08-19T06:22:28;12.73;;;6.88;;
25083;SDS011;13075;55.682;37.564;2022-08-19T06:24:54;12.45;;;5.68;;
25083;SDS011;13075;55.682;37.564;2022-08-19T06:27:21;12.85;;;8.60;;
25083;SDS011;13075;55.682;37.564;2022-08-19T06:29:47;22.23;;;6.78;;
25083;SDS011;13075;55.682;37.564;2022-08-19T06:32:14;19.60;;;6.32;;
25083;SDS011;13075;55.682;37.564;2022-08-19T06:34:41;24.83;;;6.18;;
25083;SDS011;13075;55.682;37.564;2022-08-19T06:37:07;17.23;;;7.20;;
25083;SDS011;13075;55.682;37.564;2022-08-19T06:39:36;18.02;;;6.97;;
25083;SDS011;13075;55.682;37.564;2022-08-19T06:42:04;13.50;;;6.03;;
25083;SDS011;13075;55.682;37.564;2022-08-19T06:44:35;18.35;;;6.80;;
25083;SDS011;13075;55.682;37.564;2022-08-19T06:47:02;8.73;;;5.70;;
25083;SDS011;13075;55.682;37.564;2022-08-19T06:49:29;16.92;;;6.18;;
25083;SDS011;13075;55.682;37.564;2022-08-19T06:51:56;10.95;;;7.28;;
25083;SDS011;13075;55.682;37.564;2022-08-19T06:54:23;19.15;;;7.43;;
25083;SDS011;13075;55.682;37.564;2022-08-19T06:56:51;17.55;;;5.70;;
25083;SDS011;13075;55.682;37.564;2022-08-19T06:59:18;13.27;;;5.60;;
25083;SDS011;13075;55.682;37.564;2022-08-19T07:01:46;17.50;;;5.53;;
25083;SDS011;13075;55.682;37.564;2022-08-19T07:04:18;15.23;;;7.88;;
25083;SDS011;13075;55.682;37.564;2022-08-19T07:06:45;16.80;;;6.60;;
25083;SDS011;13075;55.682;37.564;2022-08-19T07:09:12;12.88;;;7.55;;
25083;SDS011;13075;55.682;37.564;2022-08-19T07:11:43;24.30;;;6.47;;
25083;SDS011;13075;55.682;37.564;2022-08-19T07:14:12;21.02;;;8.73;;
25083;SDS011;13075;55.682;37.564;2022-08-19T07:16:41;18.13;;;8.80;;
25083;SDS011;13075;55.682;37.564;2022-08-19T07:19:06;20.88;;;6.57;;
25083;SDS011;13075;55.682;37.564;2022-08-19T07:21:32;13.55;;;6.68;;
25083;SDS011;13075;55.682;37.564;2022-08-19T07:23:58;8.93;;;5.85;;
25083;SDS011;13075;55.682;37.564;2022-08-19T07:26:26;12.45;;;5.75;;
25083;SDS011;13075;55.682;37.564;2022-08-19T07:28:53;12.73;;;6.15;;
25083;SDS011;13075;55.682;37.564;2022-08-19T07:31:21;17.77;;;8.52;;
25083;SDS011;13075;55.682;37.564;2022-08-19T07:33:49;15.10;;;6.60;;
25083;SDS011;13075;55.682;37.564;2022-08-19T07:36:16;15.35;;;5.70;;
25083;SDS011;13075;55.682;37.564;2022-08-19T07:38:45;11.23;;;6.13;;
25083;SDS011;13075;55.682;37.564;2022-08-19T07:41:15;12.80;;;6.18;;
25083;SDS011;13075;55.682;37.564;2022-08-19T07:43:45;13.57;;;5.30;;
25083;SDS011;13075;55.682;37.564;2022-08-19T07:46:12;12.48;;;5.78;;
25083;SDS011;13075;55.682;37.564;2022-08-19T07:48:38;14.90;;;5.38;;
25083;SDS011;13075;55.682;37.564;2022-08-19T07:51:06;12.30;;;4.78;;
25083;SDS011;13075;55.682;37.564;2022-08-19T07:53:33;21.45;;;5.95;;
25083;SDS011;13075;55.682;37.564;2022-08-19T07:56:00;19.50;;;6.35;;
25083;SDS011;13075;55.682;37.564;2022-08-19T07:58:28;16.40;;;6.30;;
25083;SDS011;13075;55.682;37.564;2022-08-19T08:00:54;11.30;;;5.22;;
25083;SDS011;13075;55.682;37.564;2022-08-19T08:03:20;9.40;;;4.97;;
25083;SDS011;13075;55.682;37.564;2022-08-19T08:06:07;8.20;;;4.97;;
25083;SDS011;13075;55.682;37.564;2022-08-19T08:08:52;18.48;;;5.57;;
25083;SDS011;13075;55.682;37.564;2022-08-19T08:11:40;14.15;;;5.68;;
25083;SDS011;13075;55.682;37.564;2022-08-19T08:14:14;11.45;;;5.22;;
25083;SDS011;13075;55.682;37.564;2022-08-19T08:16:41;17.80;;;4.85;;
25083;SDS011;13075;55.682;37.564;2022-08-19T08:19:09;12.48;;;5.75;;
25083;SDS011;13075;55.682;37.564;2022-08-19T08:21:35;14.02;;;4.68;;
25083;SDS011;13075;55.682;37.564;2022-08-19T08:24:01;13.05;;;4.65;;
25083;SDS011;13075;55.682;37.564;2022-08-19T08:26:27;7.97;;;4.88;;
25083;SDS011;13075;55.682;37.564;2022-08-19T08:28:53;11.05;;;6.57;;
25083;SDS011;13075;55.682;37.564;2022-08-19T08:31:19;16.08;;;5.00;;
25083;SDS011;13075;55.682;37.564;2022-08-19T08:33:45;20.38;;;6.82;;
25083;SDS011;13075;55.682;37.564;2022-08-19T08:36:11;8.25;;;4.30;;
25083;SDS011;13075;55.682;37.564;2022-08-19T08:38:39;14.52;;;5.85;;
25083;SDS011;13075;55.682;37.564;2022-08-19T08:41:12;14.27;;;5.82;;
25083;SDS011;13075;55.682;37.564;2022-08-19T08:43:49;8.70;;;5.30;;
25083;SDS011;13075;55.682;37.564;2022-08-19T08:46:28;10.18;;;5.22;;
25083;SDS011;13075;55.682;37.564;2022-08-19T08:52:18;10.20;;;4.97;;
25083;SDS011;13075;55.682;37.564;2022-08-19T08:54:51;10.55;;;5.60;;
25083;SDS011;13075;55.682;37.564;2022-08-19T08:57:24;7.95;;;4.97;;
25083;SDS011;13075;55.682;37.564;2022-08-19T08:59:53;9.05;;;4.22;;
25083;SDS011;13075;55.682;37.564;2022-08-19T09:02:22;7.55;;;3.85;;
25083;SDS011;13075;55.682;37.564;2022-08-19T09:04:47;13.48;;;4.97;;
25083;SDS011;13075;55.682;37.564;2022-08-19T09:07:20;9.93;;;4.53;;
25083;SDS011;13075;55.682;37.564;2022-08-19T09:09:49;10.18;;;3.88;;
25083;SDS011;13075;55.682;37.564;2022-08-19T09:15:02;9.95;;;3.75;;
25083;SDS011;13075;55.682;37.564;2022-08-19T09:17:31;14.57;;;4.28;;
25083;SDS011;13075;55.682;37.564;2022-08-19T09:20:00;11.57;;;4.95;;
25083;SDS011;13075;55.682;37.564;2022-08-19T09:22:32;8.55;;;4.20;;
25083;SDS011;13075;55.682;37.564;2022-08-19T09:24:58;12.75;;;4.35;;
25083;SDS011;13075;55.682;37.564;2022-08-19T09:27:25;15.63;;;4.30;;
25083;SDS011;13075;55.682;37.564;2022-08-19T09:29:52;7.80;;;4.40;;
25083;SDS011;13075;55.682;37.564;2022-08-19T09:32:19;11.73;;;4.60;;
25083;SDS011;13075;55.682;37.564;2022-08-19T09:34:45;8.63;;;5.20;;
25083;SDS011;13075;55.682;37.564;2022-08-19T09:37:11;8.65;;;4.43;;
25083;SDS011;13075;55.682;37.564;2022-08-19T09:39:38;12.90;;;4.03;;
25083;SDS011;13075;55.682;37.564;2022-08-19T09:42:06;9.65;;;4.57;;
25083;SDS011;13075;55.682;37.564;2022-08-19T09:44:37;10.35;;;5.32;;
25083;SDS011;13075;55.682;37.564;2022-08-19T09:47:03;9.82;;;4.82;;
25083;SDS011;13075;55.682;37.564;2022-08-19T09:49:29;10.32;;;4.28;;
25083;SDS011;13075;55.682;37.564;2022-08-19T09:51:56;10.05;;;4.38;;
25083;SDS011;13075;55.682;37.564;2022-08-19T09:54:22;14.18;;;4.80;;
25083;SDS011;13075;55.682;37.564;2022-08-19T09:56:48;9.25;;;4.07;;
25083;SDS011;13075;55.682;37.564;2022-08-19T09:59:15;9.65;;;4.85;;
25083;SDS011;13075;55.682;37.564;2022-08-19T10:01:41;11.73;;;4.07;;
25083;SDS011;13075;55.682;37.564;2022-08-19T10:04:07;9.93;;;4.00;;
25083;SDS011;13075;55.682;37.564;2022-08-19T10:06:37;10.95;;;3.47;;
25083;SDS011;13075;55.682;37.564;2022-08-19T10:09:07;20.73;;;5.25;;
25083;SDS011;13075;55.682;37.564;2022-08-19T10:11:34;13.07;;;3.70;;
25083;SDS011;13075;55.682;37.564;2022-08-19T10:14:03;6.20;;;3.50;;
25083;SDS011;13075;55.682;37.564;2022-08-19T10:16:30;13.05;;;4.05;;
25083;SDS011;13075;55.682;37.564;2022-08-19T10:18:57;10.45;;;3.35;;
25083;SDS011;13075;55.682;37.564;2022-08-19T10:21:32;6.82;;;3.53;;
25083;SDS011;13075;55.682;37.564;2022-08-19T10:24:00;14.13;;;3.55;;
25083;SDS011;13075;55.682;37.564;2022-08-19T10:26:30;9.65;;;3.85;;
25083;SDS011;13075;55.682;37.564;2022-08-19T10:28:57;18.58;;;3.80;;
25083;SDS011;13075;55.682;37.564;2022-08-19T10:31:25;5.43;;;3.10;;
25083;SDS011;13075;55.682;37.564;2022-08-19T10:33:52;19.85;;;4.45;;
25083;SDS011;13075;55.682;37.564;2022-08-19T10:36:33;11.40;;;4.13;;
25083;SDS011;13075;55.682;37.564;2022-08-19T10:39:03;13.00;;;3.28;;
25083;SDS011;13075;55.682;37.564;2022-08-19T10:44:07;10.70;;;3.45;;
25083;SDS011;13075;55.682;37.564;2022-08-19T10:49:03;16.98;;;4.05;;
25083;SDS011;13075;55.682;37.564;2022-08-19T10:51:31;16.58;;;4.90;;
25083;SDS011;13075;55.682;37.564;2022-08-19T10:54:16;13.27;;;3.60;;
25083;SDS011;13075;55.682;37.564;2022-08-19T10:56:42;16.38;;;4.72;;
25083;SDS011;13075;55.682;37.564;2022-08-19T10:59:22;9.13;;;3.33;;
25083;SDS011;13075;55.682;37.564;2022-08-19T11:01:50;13.30;;;3.15;;
25083;SDS011;13075;55.682;37.564;2022-08-19T11:04:17;10.00;;;3.67;;
25083;SDS011;13075;55.682;37.564;2022-08-19T11:06:44;43.95;;;5.60;;
25083;SDS011;13075;55.682;37.564;2022-08-19T11:09:16;18.48;;;4.55;;
25083;SDS011;13075;55.682;37.564;2022-08-19T11:11:43;16.88;;;3.55;;
25083;SDS011;13075;55.682;37.564;2022-08-19T11:14:11;10.15;;;4.97;;
25083;SDS011;13075;55.682;37.564;2022-08-19T11:16:39;11.07;;;3.80;;
25083;SDS011;13075;55.682;37.564;2022-08-19T11:19:05;9.00;;;3.10;;
25083;SDS011;13075;55.682;37.564;2022-08-19T11:21:37;13.63;;;3.38;;
25083;SDS011;13075;55.682;37.564;2022-08-19T11:24:10;11.23;;;3.47;;
25083;SDS011;13075;55.682;37.564;2022-08-19T11:26:38;6.55;;;2.92;;
25083;SDS011;13075;55.682;37.564;2022-08-19T11:29:05;7.65;;;3.67;;
25083;SDS011;13075;55.682;37.564;2022-08-19T11:31:36;15.52;;;4.50;;
25083;SDS011;13075;55.682;37.564;2022-08-19T11:34:05;6.15;;;3.60;;
25083;SDS011;13075;55.682;37.564;2022-08-19T11:36:33;10.57;;;3.60;;
25083;SDS011;13075;55.682;37.564;2022-08-19T11:39:00;11.68;;;4.03;;
25083;SDS011;13075;55.682;37.564;2022-08-19T11:41:26;9.35;;;3.00;;
25083;SDS011;13075;55.682;37.564;2022-08-19T11:43:52;6.53;;;3.85;;
25083;SDS011;13075;55.682;37.564;2022-08-19T11:46:20;10.55;;;3.95;;
25083;SDS011;13075;55.682;37.564;2022-08-19T11:48:47;8.07;;;2.95;;
25083;SDS011;13075;55.682;37.564;2022-08-19T11:51:16;6.57;;;3.22;;
25083;SDS011;13075;55.682;37.564;2022-08-19T11:53:44;9.70;;;3.38;;
25083;SDS011;13075;55.682;37.564;2022-08-19T11:56:10;7.05;;;3.47;;
25083;SDS011;13075;55.682;37.564;2022-08-19T11:58:37;16.60;;;3.88;;
25083;SDS011;13075;55.682;37.564;2022-08-19T12:01:10;13.75;;;3.40;;
25083;SDS011;13075;55.682;37.564;2022-08-19T12:03:38;11.35;;;4.25;;
25083;SDS011;13075;55.682;37.564;2022-08-19T12:06:08;10.88;;;4.00;;
25083;SDS011;13075;55.682;37.564;2022-08-19T12:08:35;10.07;;;4.43;;
25083;SDS011;13075;55.682;37.564;2022-08-19T12:11:01;13.30;;;4.57;;
25083;SDS011;13075;55.682;37.564;2022-08-19T12:13:27;8.70;;;4.32;;
25083;SDS011;13075;55.682;37.564;2022-08-19T12:15:54;10.82;;;4.03;;
25083;SDS011;13075;55.682;37.564;2022-08-19T12:18:20;16.00;;;5.03;;
25083;SDS011;13075;55.682;37.564;2022-08-19T12:20:45;14.75;;;4.32;;
25083;SDS011;13075;55.682;37.564;2022-08-19T12:23:12;22.88;;;4.32;;
25083;SDS011;13075;55.682;37.564;2022-08-19T12:25:43;15.50;;;6.82;;
25083;SDS011;13075;55.682;37.564;2022-08-19T12:28:17;15.57;;;5.35;;
25083;SDS011;13075;55.682;37.564;2022-08-19T12:30:44;13.43;;;7.13;;
25083;SDS011;13075;55.682;37.564;2022-08-19T12:33:10;10.68;;;4.13;;
25083;SDS011;13075;55.682;37.564;2022-08-19T12:35:39;11.65;;;4.63;;
25083;SDS011;13075;55.682;37.564;2022-08-19T12:38:06;20.05;;;6.07;;
25083;SDS011;13075;55.682;37.564;2022-08-19T12:40:31;12.95;;;4.40;;
25083;SDS011;13075;55.682;37.564;2022-08-19T12:42:57;8.68;;;4.55;;
25083;SDS011;13075;55.682;37.564;2022-08-19T12:45:23;19.73;;;4.45;;
25083;SDS011;13075;55.682;37.564;2022-08-19T12:47:48;10.07;;;4.82;;
25083;SDS011;13075;55.682;37.564;2022-08-19T12:50:14;18.15;;;4.85;;
25083;SDS011;13075;55.682;37.564;2022-08-19T12:52:40;15.65;;;4.45;;
25083;SDS011;13075;55.682;37.564;2022-08-19T12:55:07;7.72;;;3.95;;
25083;SDS011;13075;55.682;37.564;2022-08-19T12:57:34;12.90;;;4.05;;
25083;SDS011;13075;55.682;37.564;2022-08-19T13:00:10;17.15;;;4.50;;
25083;SDS011;13075;55.682;37.564;2022-08-19T13:02:39;18.45;;;5.68;;
25083;SDS011;13075;55.682;37.564;2022-08-19T13:05:07;11.30;;;4.10;;
25083;SDS011;13075;55.682;37.564;2022-08-19T13:07:35;20.38;;;5.88;;
25083;SDS011;13075;55.682;37.564;2022-08-19T13:10:02;7.75;;;4.03;;
25083;SDS011;13075;55.682;37.564;2022-08-19T13:12:29;13.75;;;4.47;;
25083;SDS011;13075;55.682;37.564;2022-08-19T13:14:55;12.05;;;5.25;;
25083;SDS011;13075;55.682;37.564;2022-08-19T13:17:21;9.70;;;4.20;;
25083;SDS011;13075;55.682;37.564;2022-08-19T13:19:46;11.00;;;4.63;;
25083;SDS011;13075;55.682;37.564;2022-08-19T13:22:12;15.05;;;5.97;;
25083;SDS011;13075;55.682;37.564;2022-08-19T13:24:38;16.38;;;7.00;;
25083;SDS011;13075;55.682;37.564;2022-08-19T13:27:04;17.65;;;7.00;;
25083;SDS011;13075;55.682;37.564;2022-08-19T13:29:30;7.82;;;6.32;;
25083;SDS011;13075;55.682;37.564;2022-08-19T13:32:14;11.43;;;7.30;;
25083;SDS011;13075;55.682;37.564;2022-08-19T13:34:58;14.80;;;6.85;;
25083;SDS011;13075;55.682;37.564;2022-08-19T13:37:24;18.35;;;8.35;;
25083;SDS011;13075;55.682;37.564;2022-08-19T13:40:08;22.08;;;8.30;;
25083;SDS011;13075;55.682;37.564;2022-08-19T13:42:42;13.23;;;7.65;;
25083;SDS011;13075;55.682;37.564;2022-08-19T13:45:09;13.85;;;9.77;;
25083;SDS011;13075;55.682;37.564;2022-08-19T13:47:35;15.52;;;7.50;;
25083;SDS011;13075;55.682;37.564;2022-08-19T13:50:07;11.23;;;8.18;;
25083;SDS011;13075;55.682;37.564;2022-08-19T13:52:34;15.23;;;9.23;;
25083;SDS011;13075;55.682;37.564;2022-08-19T13:54:59;13.98;;;9.20;;
25083;SDS011;13075;55.682;37.564;2022-08-19T13:57:25;18.58;;;11.27;;
25083;SDS011;13075;55.682;37.564;2022-08-19T13:59:51;22.00;;;12.13;;
25083;SDS011;13075;55.682;37.564;2022-08-19T14:02:16;15.82;;;11.25;;
25083;SDS011;13075;55.682;37.564;2022-08-19T14:04:42;21.83;;;16.45;;
25083;SDS011;13075;55.682;37.564;2022-08-19T14:07:07;26.52;;;16.98;;
25083;SDS011;13075;55.682;37.564;2022-08-19T14:09:34;23.13;;;15.65;;
25083;SDS011;13075;55.682;37.564;2022-08-19T14:12:00;31.55;;;16.02;;
25083;SDS011;13075;55.682;37.564;2022-08-19T14:14:25;15.02;;;13.27;;
25083;SDS011;13075;55.682;37.564;2022-08-19T14:16:51;15.18;;;13.55;;
25083;SDS011;13075;55.682;37.564;2022-08-19T14:19:17;28.85;;;13.50;;
25083;SDS011;13075;55.682;37.564;2022-08-19T14:21:42;14.98;;;9.65;;
25083;SDS011;13075;55.682;37.564;2022-08-19T14:24:08;18.48;;;12.45;;
25083;SDS011;13075;55.682;37.564;2022-08-19T14:26:34;31.88;;;11.48;;
25083;SDS011;13075;55.682;37.564;2022-08-19T14:28:59;18.25;;;12.02;;
25083;SDS011;13075;55.682;37.564;2022-08-19T14:31:26;13.75;;;11.73;;
25083;SDS011;13075;55.682;37.564;2022-08-19T14:33:52;28.77;;;10.95;;
25083;SDS011;13075;55.682;37.564;2022-08-19T14:36:19;19.65;;;13.27;;
25083;SDS011;13075;55.682;37.564;2022-08-19T14:38:46;26.10;;;13.60;;
25083;SDS011;13075;55.682;37.564;2022-08-19T14:41:15;23.50;;;17.83;;
25083;SDS011;13075;55.682;37.564;2022-08-19T14:43:45;46.00;;;27.70;;
25083;SDS011;13075;55.682;37.564;2022-08-19T14:46:15;36.78;;;26.70;;
25083;SDS011;13075;55.682;37.564;2022-08-19T14:48:45;40.10;;;26.55;;
25083;SDS011;13075;55.682;37.564;2022-08-19T14:51:11;45.72;;;31.92;;
25083;SDS011;13075;55.682;37.564;2022-08-19T14:53:39;45.25;;;35.47;;